sensor_id;sensor_type;location;lat;lon;timestamp;P1;durP1;ratioP1;P2;durP2;ratioP2
24216;SDS011;12356;49.386;8.688;2023-07-31T00:01:21;5.00;;;1.70;;
24216;SDS011;12356;49.386;8.688;2023-07-31T00:03:52;4.57;;;1.65;;
24216;SDS011;12356;49.386;8.688;2023-07-31T00:06:22;4.78;;;1.70;;
24216;SDS011;12356;49.386;8.688;2023-07-31T00:08:53;4.57;;;1.65;;
24216;SDS011;12356;49.386;8.688;2023-07-31T00:11:23;4.32;;;1.70;;
24216;SDS011;12356;49.386;8.688;2023-07-31T00:13:54;2.95;;;1.40;;
24216;SDS011;12356;49.386;8.688;2023-07-31T00:16:24;4.30;;;1.50;;
24216;SDS011;12356;49.386;8.688;2023-07-31T00:18:55;5.10;;;2.22;;
24216;SDS011;12356;49.386;8.688;2023-07-31T00:21:26;4.63;;;1.70;;
24216;SDS011;12356;49.386;8.688;2023-07-31T00:23:56;3.45;;;1.50;;
24216;SDS011;12356;49.386;8.688;2023-07-31T00:26:27;3.63;;;1.58;;
24216;SDS011;12356;49.386;8.688;2023-07-31T00:28:57;3.65;;;1.58;;
24216;SDS011;12356;49.386;8.688;2023-07-31T00:31:28;5.65;;;1.70;;
24216;SDS011;12356;49.386;8.688;2023-07-31T00:33:58;4.50;;;1.60;;
24216;SDS011;12356;49.386;8.688;2023-07-31T00:36:29;6.93;;;2.00;;
24216;SDS011;12356;49.386;8.688;2023-07-31T00:39:00;4.25;;;1.52;;
24216;SDS011;12356;49.386;8.688;2023-07-31T00:41:30;3.70;;;1.63;;
24216;SDS011;12356;49.386;8.688;2023-07-31T00:44:01;3.30;;;1.80;;
24216;SDS011;12356;49.386;8.688;2023-07-31T00:46:31;7.60;;;1.70;;
24216;SDS011;12356;49.386;8.688;2023-07-31T00:49:02;4.82;;;1.50;;
24216;SDS011;12356;49.386;8.688;2023-07-31T00:51:34;4.18;;;1.80;;
24216;SDS011;12356;49.386;8.688;2023-07-31T00:54:05;6.03;;;1.52;;
24216;SDS011;12356;49.386;8.688;2023-07-31T00:56:36;5.90;;;1.55;;
24216;SDS011;12356;49.386;8.688;2023-07-31T00:59:07;4.35;;;2.00;;
24216;SDS011;12356;49.386;8.688;2023-07-31T01:01:38;5.60;;;2.10;;
24216;SDS011;12356;49.386;8.688;2023-07-31T01:04:08;3.53;;;1.70;;
24216;SDS011;12356;49.386;8.688;2023-07-31T01:06:40;2.83;;;1.40;;
24216;SDS011;12356;49.386;8.688;2023-07-31T01:09:44;5.07;;;1.55;;
24216;SDS011;12356;49.386;8.688;2023-07-31T01:12:19;5.00;;;1.70;;
24216;SDS011;12356;49.386;8.688;2023-07-31T01:17:33;4.00;;;1.67;;
24216;SDS011;12356;49.386;8.688;2023-07-31T01:20:05;4.30;;;1.92;;
24216;SDS011;12356;49.386;8.688;2023-07-31T01:23:13;5.13;;;1.77;;
24216;SDS011;12356;49.386;8.688;2023-07-31T01:26:11;5.97;;;1.80;;
24216;SDS011;12356;49.386;8.688;2023-07-31T01:29:03;4.75;;;1.80;;
24216;SDS011;12356;49.386;8.688;2023-07-31T01:31:43;7.10;;;1.83;;
24216;SDS011;12356;49.386;8.688;2023-07-31T01:34:18;5.15;;;1.75;;
24216;SDS011;12356;49.386;8.688;2023-07-31T01:36:50;4.50;;;1.90;;
24216;SDS011;12356;49.386;8.688;2023-07-31T01:39:21;6.25;;;1.90;;
24216;SDS011;12356;49.386;8.688;2023-07-31T01:41:51;9.05;;;1.95;;
24216;SDS011;12356;49.386;8.688;2023-07-31T01:44:22;7.03;;;2.13;;
24216;SDS011;12356;49.386;8.688;2023-07-31T01:46:53;4.00;;;1.73;;
24216;SDS011;12356;49.386;8.688;2023-07-31T01:49:23;5.57;;;1.52;;
24216;SDS011;12356;49.386;8.688;2023-07-31T01:51:54;3.45;;;1.40;;
24216;SDS011;12356;49.386;8.688;2023-07-31T01:54:24;5.88;;;1.80;;
24216;SDS011;12356;49.386;8.688;2023-07-31T01:56:55;2.88;;;1.67;;
24216;SDS011;12356;49.386;8.688;2023-07-31T01:59:25;9.18;;;2.00;;
24216;SDS011;12356;49.386;8.688;2023-07-31T02:01:56;5.25;;;1.85;;
24216;SDS011;12356;49.386;8.688;2023-07-31T02:04:27;5.78;;;1.80;;
24216;SDS011;12356;49.386;8.688;2023-07-31T02:06:57;4.18;;;1.70;;
24216;SDS011;12356;49.386;8.688;2023-07-31T02:09:28;7.03;;;1.88;;
24216;SDS011;12356;49.386;8.688;2023-07-31T02:11:58;4.22;;;1.88;;
24216;SDS011;12356;49.386;8.688;2023-07-31T02:14:29;5.03;;;1.70;;
24216;SDS011;12356;49.386;8.688;2023-07-31T02:16:59;3.92;;;1.60;;
24216;SDS011;12356;49.386;8.688;2023-07-31T02:19:30;5.68;;;1.70;;
24216;SDS011;12356;49.386;8.688;2023-07-31T02:22:01;5.40;;;1.92;;
24216;SDS011;12356;49.386;8.688;2023-07-31T02:24:31;3.60;;;1.98;;
24216;SDS011;12356;49.386;8.688;2023-07-31T02:27:02;3.83;;;1.90;;
24216;SDS011;12356;49.386;8.688;2023-07-31T02:29:32;4.35;;;2.00;;
24216;SDS011;12356;49.386;8.688;2023-07-31T02:32:03;4.10;;;1.73;;
24216;SDS011;12356;49.386;8.688;2023-07-31T02:34:34;5.18;;;1.77;;
24216;SDS011;12356;49.386;8.688;2023-07-31T02:37:04;2.92;;;1.50;;
24216;SDS011;12356;49.386;8.688;2023-07-31T02:39:35;5.57;;;1.55;;
24216;SDS011;12356;49.386;8.688;2023-07-31T02:42:06;2.78;;;1.55;;
24216;SDS011;12356;49.386;8.688;2023-07-31T02:44:36;6.07;;;1.80;;
24216;SDS011;12356;49.386;8.688;2023-07-31T02:47:07;2.80;;;1.50;;
24216;SDS011;12356;49.386;8.688;2023-07-31T02:49:37;5.63;;;1.98;;
24216;SDS011;12356;49.386;8.688;2023-07-31T02:52:08;5.72;;;1.75;;
24216;SDS011;12356;49.386;8.688;2023-07-31T02:54:38;5.10;;;1.92;;
24216;SDS011;12356;49.386;8.688;2023-07-31T02:57:09;6.28;;;1.90;;
24216;SDS011;12356;49.386;8.688;2023-07-31T02:59:40;5.03;;;2.10;;
24216;SDS011;12356;49.386;8.688;2023-07-31T03:02:10;6.13;;;2.03;;
24216;SDS011;12356;49.386;8.688;2023-07-31T03:04:42;3.20;;;1.70;;
24216;SDS011;12356;49.386;8.688;2023-07-31T03:07:12;5.50;;;2.10;;
24216;SDS011;12356;49.386;8.688;2023-07-31T03:09:43;4.10;;;1.90;;
24216;SDS011;12356;49.386;8.688;2023-07-31T03:12:13;5.50;;;2.03;;
24216;SDS011;12356;49.386;8.688;2023-07-31T03:14:44;3.75;;;1.70;;
24216;SDS011;12356;49.386;8.688;2023-07-31T03:17:15;6.75;;;1.98;;
24216;SDS011;12356;49.386;8.688;2023-07-31T03:19:45;6.85;;;2.08;;
24216;SDS011;12356;49.386;8.688;2023-07-31T03:22:16;5.18;;;1.90;;
24216;SDS011;12356;49.386;8.688;2023-07-31T03:24:46;3.70;;;1.83;;
24216;SDS011;12356;49.386;8.688;2023-07-31T03:27:17;5.22;;;1.58;;
24216;SDS011;12356;49.386;8.688;2023-07-31T03:29:48;6.35;;;2.00;;
24216;SDS011;12356;49.386;8.688;2023-07-31T03:34:51;5.60;;;1.70;;
24216;SDS011;12356;49.386;8.688;2023-07-31T03:37:22;5.25;;;2.17;;
24216;SDS011;12356;49.386;8.688;2023-07-31T03:39:52;5.20;;;1.90;;
24216;SDS011;12356;49.386;8.688;2023-07-31T03:42:23;6.25;;;2.28;;
24216;SDS011;12356;49.386;8.688;2023-07-31T03:44:53;5.13;;;2.10;;
24216;SDS011;12356;49.386;8.688;2023-07-31T03:47:24;5.15;;;2.00;;
24216;SDS011;12356;49.386;8.688;2023-07-31T03:49:54;4.80;;;1.83;;
24216;SDS011;12356;49.386;8.688;2023-07-31T03:52:25;4.72;;;1.95;;
24216;SDS011;12356;49.386;8.688;2023-07-31T03:54:55;4.20;;;2.10;;
24216;SDS011;12356;49.386;8.688;2023-07-31T03:57:26;4.70;;;2.10;;
24216;SDS011;12356;49.386;8.688;2023-07-31T03:59:57;5.15;;;2.00;;
24216;SDS011;12356;49.386;8.688;2023-07-31T04:02:28;5.32;;;2.00;;
24216;SDS011;12356;49.386;8.688;2023-07-31T04:04:58;7.20;;;2.10;;
24216;SDS011;12356;49.386;8.688;2023-07-31T04:07:29;6.18;;;2.30;;
24216;SDS011;12356;49.386;8.688;2023-07-31T04:09:59;3.88;;;1.92;;
24216;SDS011;12356;49.386;8.688;2023-07-31T04:12:30;4.50;;;2.10;;
24216;SDS011;12356;49.386;8.688;2023-07-31T04:15:00;7.53;;;2.10;;
24216;SDS011;12356;49.386;8.688;2023-07-31T04:17:31;6.10;;;2.08;;
24216;SDS011;12356;49.386;8.688;2023-07-31T04:20:02;4.13;;;1.95;;
24216;SDS011;12356;49.386;8.688;2023-07-31T04:22:32;4.25;;;2.10;;
24216;SDS011;12356;49.386;8.688;2023-07-31T04:25:03;4.55;;;1.90;;
24216;SDS011;12356;49.386;8.688;2023-07-31T04:27:33;6.53;;;2.10;;
24216;SDS011;12356;49.386;8.688;2023-07-31T04:30:04;4.03;;;1.98;;
24216;SDS011;12356;49.386;8.688;2023-07-31T04:32:35;4.10;;;1.83;;
24216;SDS011;12356;49.386;8.688;2023-07-31T04:35:06;4.35;;;1.92;;
24216;SDS011;12356;49.386;8.688;2023-07-31T04:37:37;4.80;;;1.88;;
24216;SDS011;12356;49.386;8.688;2023-07-31T04:40:08;4.85;;;2.05;;
24216;SDS011;12356;49.386;8.688;2023-07-31T04:42:39;4.20;;;2.00;;
24216;SDS011;12356;49.386;8.688;2023-07-31T04:45:10;4.53;;;2.00;;
24216;SDS011;12356;49.386;8.688;2023-07-31T04:47:40;4.65;;;2.20;;
24216;SDS011;12356;49.386;8.688;2023-07-31T04:50:11;7.15;;;2.55;;
24216;SDS011;12356;49.386;8.688;2023-07-31T04:52:41;4.57;;;2.15;;
24216;SDS011;12356;49.386;8.688;2023-07-31T04:55:12;4.97;;;2.63;;
24216;SDS011;12356;49.386;8.688;2023-07-31T04:57:42;5.07;;;2.67;;
24216;SDS011;12356;49.386;8.688;2023-07-31T05:00:13;5.60;;;2.60;;
24216;SDS011;12356;49.386;8.688;2023-07-31T05:02:43;6.30;;;2.40;;
24216;SDS011;12356;49.386;8.688;2023-07-31T05:05:14;5.70;;;2.30;;
24216;SDS011;12356;49.386;8.688;2023-07-31T05:07:45;4.05;;;2.38;;
24216;SDS011;12356;49.386;8.688;2023-07-31T05:10:15;5.60;;;2.50;;
24216;SDS011;12356;49.386;8.688;2023-07-31T05:12:46;5.97;;;2.45;;
24216;SDS011;12356;49.386;8.688;2023-07-31T05:15:16;4.95;;;2.20;;
24216;SDS011;12356;49.386;8.688;2023-07-31T05:17:47;5.78;;;2.40;;
24216;SDS011;12356;49.386;8.688;2023-07-31T05:20:17;6.05;;;2.58;;
24216;SDS011;12356;49.386;8.688;2023-07-31T05:22:48;3.78;;;2.30;;
24216;SDS011;12356;49.386;8.688;2023-07-31T05:25:18;5.10;;;2.38;;
24216;SDS011;12356;49.386;8.688;2023-07-31T05:27:49;4.43;;;2.30;;
24216;SDS011;12356;49.386;8.688;2023-07-31T05:30:20;4.75;;;2.22;;
24216;SDS011;12356;49.386;8.688;2023-07-31T05:32:51;4.97;;;2.10;;
24216;SDS011;12356;49.386;8.688;2023-07-31T05:35:22;5.07;;;2.30;;
24216;SDS011;12356;49.386;8.688;2023-07-31T05:37:52;2.72;;;1.83;;
24216;SDS011;12356;49.386;8.688;2023-07-31T05:40:23;6.13;;;2.05;;
24216;SDS011;12356;49.386;8.688;2023-07-31T05:42:53;7.95;;;2.72;;
24216;SDS011;12356;49.386;8.688;2023-07-31T05:45:25;5.40;;;2.03;;
24216;SDS011;12356;49.386;8.688;2023-07-31T05:47:55;6.57;;;2.50;;
24216;SDS011;12356;49.386;8.688;2023-07-31T05:50:26;3.60;;;2.22;;
24216;SDS011;12356;49.386;8.688;2023-07-31T05:52:56;4.13;;;2.13;;
24216;SDS011;12356;49.386;8.688;2023-07-31T05:55:27;5.15;;;2.03;;
24216;SDS011;12356;49.386;8.688;2023-07-31T05:57:58;7.10;;;2.17;;
24216;SDS011;12356;49.386;8.688;2023-07-31T06:00:28;5.00;;;2.40;;
24216;SDS011;12356;49.386;8.688;2023-07-31T06:02:59;4.05;;;1.90;;
24216;SDS011;12356;49.386;8.688;2023-07-31T06:05:29;5.85;;;2.40;;
24216;SDS011;12356;49.386;8.688;2023-07-31T06:08:00;5.53;;;2.28;;
24216;SDS011;12356;49.386;8.688;2023-07-31T06:10:31;4.85;;;2.15;;
24216;SDS011;12356;49.386;8.688;2023-07-31T06:13:01;6.60;;;1.90;;
24216;SDS011;12356;49.386;8.688;2023-07-31T06:15:33;7.78;;;2.50;;
24216;SDS011;12356;49.386;8.688;2023-07-31T06:18:04;2.57;;;1.67;;
24216;SDS011;12356;49.386;8.688;2023-07-31T06:20:37;5.55;;;2.10;;
24216;SDS011;12356;49.386;8.688;2023-07-31T06:23:10;5.07;;;2.00;;
24216;SDS011;12356;49.386;8.688;2023-07-31T06:25:41;5.32;;;1.90;;
24216;SDS011;12356;49.386;8.688;2023-07-31T06:28:11;5.55;;;2.00;;
24216;SDS011;12356;49.386;8.688;2023-07-31T06:30:42;4.97;;;2.20;;
24216;SDS011;12356;49.386;8.688;2023-07-31T06:33:12;9.57;;;2.20;;
24216;SDS011;12356;49.386;8.688;2023-07-31T06:35:43;6.20;;;2.08;;
24216;SDS011;12356;49.386;8.688;2023-07-31T06:38:14;4.05;;;2.00;;
24216;SDS011;12356;49.386;8.688;2023-07-31T06:40:44;3.95;;;1.90;;
24216;SDS011;12356;49.386;8.688;2023-07-31T06:43:15;4.13;;;2.15;;
24216;SDS011;12356;49.386;8.688;2023-07-31T06:45:45;4.43;;;2.10;;
24216;SDS011;12356;49.386;8.688;2023-07-31T06:48:16;6.20;;;2.30;;
24216;SDS011;12356;49.386;8.688;2023-07-31T06:50:47;4.25;;;1.80;;
24216;SDS011;12356;49.386;8.688;2023-07-31T06:53:17;6.03;;;2.20;;
24216;SDS011;12356;49.386;8.688;2023-07-31T06:55:48;4.55;;;2.25;;
24216;SDS011;12356;49.386;8.688;2023-07-31T06:58:18;3.03;;;1.80;;
24216;SDS011;12356;49.386;8.688;2023-07-31T07:00:49;5.50;;;2.05;;
24216;SDS011;12356;49.386;8.688;2023-07-31T07:03:20;5.97;;;2.08;;
24216;SDS011;12356;49.386;8.688;2023-07-31T07:05:51;4.70;;;1.85;;
24216;SDS011;12356;49.386;8.688;2023-07-31T07:08:21;5.60;;;2.17;;
24216;SDS011;12356;49.386;8.688;2023-07-31T07:10:52;4.03;;;2.25;;
24216;SDS011;12356;49.386;8.688;2023-07-31T07:13:22;4.82;;;2.20;;
24216;SDS011;12356;49.386;8.688;2023-07-31T07:15:53;8.20;;;2.20;;
24216;SDS011;12356;49.386;8.688;2023-07-31T07:18:24;5.15;;;1.92;;
24216;SDS011;12356;49.386;8.688;2023-07-31T07:20:54;4.78;;;2.08;;
24216;SDS011;12356;49.386;8.688;2023-07-31T07:25:57;5.07;;;2.00;;
24216;SDS011;12356;49.386;8.688;2023-07-31T07:28:28;5.35;;;2.10;;
24216;SDS011;12356;49.386;8.688;2023-07-31T07:30:58;5.40;;;2.08;;
24216;SDS011;12356;49.386;8.688;2023-07-31T07:33:29;5.20;;;2.10;;
24216;SDS011;12356;49.386;8.688;2023-07-31T07:36:00;4.45;;;1.95;;
24216;SDS011;12356;49.386;8.688;2023-07-31T07:38:31;8.60;;;2.70;;
24216;SDS011;12356;49.386;8.688;2023-07-31T07:41:02;7.68;;;2.25;;
24216;SDS011;12356;49.386;8.688;2023-07-31T07:43:33;4.65;;;2.20;;
24216;SDS011;12356;49.386;8.688;2023-07-31T07:46:03;5.50;;;2.10;;
24216;SDS011;12356;49.386;8.688;2023-07-31T07:48:34;5.63;;;2.17;;
24216;SDS011;12356;49.386;8.688;2023-07-31T07:51:04;4.80;;;2.20;;
24216;SDS011;12356;49.386;8.688;2023-07-31T07:53:35;4.43;;;2.22;;
24216;SDS011;12356;49.386;8.688;2023-07-31T07:56:05;9.15;;;2.42;;
24216;SDS011;12356;49.386;8.688;2023-07-31T07:58:36;5.47;;;1.90;;
24216;SDS011;12356;49.386;8.688;2023-07-31T08:01:07;4.63;;;2.33;;
24216;SDS011;12356;49.386;8.688;2023-07-31T08:03:38;8.48;;;2.75;;
24216;SDS011;12356;49.386;8.688;2023-07-31T08:06:08;7.05;;;2.20;;
24216;SDS011;12356;49.386;8.688;2023-07-31T08:08:39;5.80;;;2.15;;
24216;SDS011;12356;49.386;8.688;2023-07-31T08:11:10;6.45;;;2.25;;
24216;SDS011;12356;49.386;8.688;2023-07-31T08:13:40;4.30;;;2.00;;
24216;SDS011;12356;49.386;8.688;2023-07-31T08:16:11;5.07;;;1.98;;
24216;SDS011;12356;49.386;8.688;2023-07-31T08:18:41;5.13;;;2.13;;
24216;SDS011;12356;49.386;8.688;2023-07-31T08:21:15;4.53;;;2.08;;
24216;SDS011;12356;49.386;8.688;2023-07-31T08:23:45;6.18;;;2.10;;
24216;SDS011;12356;49.386;8.688;2023-07-31T08:26:16;5.45;;;2.10;;
24216;SDS011;12356;49.386;8.688;2023-07-31T08:28:47;5.00;;;2.10;;
24216;SDS011;12356;49.386;8.688;2023-07-31T08:31:18;5.45;;;2.15;;
24216;SDS011;12356;49.386;8.688;2023-07-31T08:33:49;4.80;;;2.33;;
24216;SDS011;12356;49.386;8.688;2023-07-31T08:36:19;6.00;;;2.22;;
24216;SDS011;12356;49.386;8.688;2023-07-31T08:38:50;5.38;;;2.20;;
24216;SDS011;12356;49.386;8.688;2023-07-31T08:41:21;5.78;;;1.98;;
24216;SDS011;12356;49.386;8.688;2023-07-31T08:43:51;5.35;;;2.33;;
24216;SDS011;12356;49.386;8.688;2023-07-31T08:46:23;6.13;;;2.10;;
24216;SDS011;12356;49.386;8.688;2023-07-31T08:48:55;5.03;;;2.40;;
24216;SDS011;12356;49.386;8.688;2023-07-31T08:51:26;6.70;;;2.20;;
24216;SDS011;12356;49.386;8.688;2023-07-31T08:53:56;6.10;;;1.90;;
24216;SDS011;12356;49.386;8.688;2023-07-31T08:56:27;6.22;;;2.00;;
24216;SDS011;12356;49.386;8.688;2023-07-31T08:58:59;6.85;;;2.28;;
24216;SDS011;12356;49.386;8.688;2023-07-31T09:01:33;6.97;;;2.38;;
24216;SDS011;12356;49.386;8.688;2023-07-31T09:04:09;6.03;;;2.38;;
24216;SDS011;12356;49.386;8.688;2023-07-31T09:06:40;7.13;;;2.43;;
24216;SDS011;12356;49.386;8.688;2023-07-31T09:09:12;4.38;;;2.13;;
24216;SDS011;12356;49.386;8.688;2023-07-31T09:11:42;5.97;;;2.40;;
24216;SDS011;12356;49.386;8.688;2023-07-31T09:14:13;6.55;;;2.15;;
24216;SDS011;12356;49.386;8.688;2023-07-31T09:16:52;9.60;;;2.70;;
24216;SDS011;12356;49.386;8.688;2023-07-31T09:19:32;7.38;;;2.25;;
24216;SDS011;12356;49.386;8.688;2023-07-31T09:24:37;7.82;;;2.58;;
24216;SDS011;12356;49.386;8.688;2023-07-31T09:27:08;6.65;;;2.28;;
24216;SDS011;12356;49.386;8.688;2023-07-31T09:29:38;7.45;;;2.40;;
24216;SDS011;12356;49.386;8.688;2023-07-31T09:32:15;5.72;;;2.63;;
24216;SDS011;12356;49.386;8.688;2023-07-31T09:34:47;7.25;;;2.50;;
24216;SDS011;12356;49.386;8.688;2023-07-31T09:37:17;4.88;;;2.60;;
24216;SDS011;12356;49.386;8.688;2023-07-31T09:39:49;5.43;;;2.22;;
24216;SDS011;12356;49.386;8.688;2023-07-31T09:42:25;7.22;;;2.30;;
24216;SDS011;12356;49.386;8.688;2023-07-31T09:45:06;9.73;;;2.38;;
24216;SDS011;12356;49.386;8.688;2023-07-31T09:47:38;7.72;;;2.65;;
24216;SDS011;12356;49.386;8.688;2023-07-31T09:50:09;8.45;;;2.20;;
24216;SDS011;12356;49.386;8.688;2023-07-31T09:52:39;7.57;;;2.60;;
24216;SDS011;12356;49.386;8.688;2023-07-31T09:55:10;6.32;;;2.60;;
24216;SDS011;12356;49.386;8.688;2023-07-31T09:57:41;6.05;;;2.50;;
24216;SDS011;12356;49.386;8.688;2023-07-31T10:00:16;4.45;;;2.58;;
24216;SDS011;12356;49.386;8.688;2023-07-31T10:02:48;4.55;;;2.30;;
24216;SDS011;12356;49.386;8.688;2023-07-31T10:05:20;7.47;;;2.60;;
24216;SDS011;12356;49.386;8.688;2023-07-31T10:07:53;7.40;;;2.42;;
24216;SDS011;12356;49.386;8.688;2023-07-31T10:10:25;8.10;;;2.60;;
24216;SDS011;12356;49.386;8.688;2023-07-31T10:12:57;5.20;;;2.60;;
24216;SDS011;12356;49.386;8.688;2023-07-31T10:15:29;7.63;;;2.40;;
24216;SDS011;12356;49.386;8.688;2023-07-31T10:18:02;8.02;;;2.97;;
24216;SDS011;12356;49.386;8.688;2023-07-31T10:20:33;6.03;;;2.60;;
24216;SDS011;12356;49.386;8.688;2023-07-31T10:23:04;6.90;;;2.75;;
24216;SDS011;12356;49.386;8.688;2023-07-31T10:25:35;9.05;;;2.92;;
24216;SDS011;12356;49.386;8.688;2023-07-31T10:28:08;5.85;;;2.50;;
24216;SDS011;12356;49.386;8.688;2023-07-31T10:30:40;6.30;;;2.70;;
24216;SDS011;12356;49.386;8.688;2023-07-31T10:33:11;7.47;;;2.92;;
24216;SDS011;12356;49.386;8.688;2023-07-31T10:35:42;7.03;;;3.20;;
24216;SDS011;12356;49.386;8.688;2023-07-31T10:38:12;7.22;;;3.08;;
24216;SDS011;12356;49.386;8.688;2023-07-31T10:40:43;5.72;;;2.75;;
24216;SDS011;12356;49.386;8.688;2023-07-31T10:43:24;9.15;;;3.00;;
24216;SDS011;12356;49.386;8.688;2023-07-31T10:45:56;5.55;;;2.63;;
24216;SDS011;12356;49.386;8.688;2023-07-31T10:48:27;6.80;;;2.75;;
24216;SDS011;12356;49.386;8.688;2023-07-31T10:51:08;9.45;;;3.05;;
24216;SDS011;12356;49.386;8.688;2023-07-31T10:53:42;6.72;;;2.70;;
24216;SDS011;12356;49.386;8.688;2023-07-31T10:56:13;7.72;;;2.97;;
24216;SDS011;12356;49.386;8.688;2023-07-31T10:58:48;6.10;;;2.92;;
24216;SDS011;12356;49.386;8.688;2023-07-31T11:01:50;8.27;;;2.78;;
24216;SDS011;12356;49.386;8.688;2023-07-31T11:04:23;5.68;;;2.53;;
24216;SDS011;12356;49.386;8.688;2023-07-31T11:06:56;8.75;;;2.80;;
24216;SDS011;12356;49.386;8.688;2023-07-31T11:09:31;7.93;;;2.90;;
24216;SDS011;12356;49.386;8.688;2023-07-31T11:12:03;5.68;;;2.90;;
24216;SDS011;12356;49.386;8.688;2023-07-31T11:14:33;8.65;;;3.00;;
24216;SDS011;12356;49.386;8.688;2023-07-31T11:17:07;7.43;;;2.92;;
24216;SDS011;12356;49.386;8.688;2023-07-31T11:19:38;7.68;;;3.55;;
24216;SDS011;12356;49.386;8.688;2023-07-31T11:22:08;5.88;;;3.15;;
24216;SDS011;12356;49.386;8.688;2023-07-31T11:24:39;4.85;;;2.55;;
24216;SDS011;12356;49.386;8.688;2023-07-31T11:27:09;5.45;;;2.40;;
24216;SDS011;12356;49.386;8.688;2023-07-31T11:29:40;6.30;;;2.72;;
24216;SDS011;12356;49.386;8.688;2023-07-31T11:32:15;6.55;;;2.60;;
24216;SDS011;12356;49.386;8.688;2023-07-31T11:34:51;10.68;;;2.63;;
24216;SDS011;12356;49.386;8.688;2023-07-31T11:37:28;6.18;;;2.80;;
24216;SDS011;12356;49.386;8.688;2023-07-31T11:40:09;5.90;;;2.70;;
24216;SDS011;12356;49.386;8.688;2023-07-31T11:42:40;6.47;;;2.72;;
24216;SDS011;12356;49.386;8.688;2023-07-31T11:45:11;5.20;;;2.65;;
24216;SDS011;12356;49.386;8.688;2023-07-31T11:47:41;11.05;;;2.58;;
24216;SDS011;12356;49.386;8.688;2023-07-31T11:50:12;6.70;;;2.65;;
24216;SDS011;12356;49.386;8.688;2023-07-31T11:52:43;6.43;;;2.38;;
24216;SDS011;12356;49.386;8.688;2023-07-31T11:55:16;6.97;;;3.03;;
24216;SDS011;12356;49.386;8.688;2023-07-31T11:57:47;7.40;;;2.50;;
24216;SDS011;12356;49.386;8.688;2023-07-31T12:00:18;6.22;;;2.80;;
24216;SDS011;12356;49.386;8.688;2023-07-31T12:02:50;4.78;;;2.40;;
24216;SDS011;12356;49.386;8.688;2023-07-31T12:05:21;7.80;;;2.53;;
24216;SDS011;12356;49.386;8.688;2023-07-31T12:07:53;9.20;;;2.72;;
24216;SDS011;12356;49.386;8.688;2023-07-31T12:10:26;7.32;;;2.85;;
24216;SDS011;12356;49.386;8.688;2023-07-31T12:12:59;4.07;;;2.55;;
24216;SDS011;12356;49.386;8.688;2023-07-31T12:15:32;6.35;;;2.75;;
24216;SDS011;12356;49.386;8.688;2023-07-31T12:18:06;6.60;;;2.80;;
24216;SDS011;12356;49.386;8.688;2023-07-31T12:20:45;7.18;;;2.72;;
24216;SDS011;12356;49.386;8.688;2023-07-31T12:23:27;7.75;;;2.70;;
24216;SDS011;12356;49.386;8.688;2023-07-31T12:28:41;6.32;;;2.80;;
24216;SDS011;12356;49.386;8.688;2023-07-31T12:31:18;4.57;;;2.80;;
24216;SDS011;12356;49.386;8.688;2023-07-31T12:33:51;9.40;;;2.97;;
24216;SDS011;12356;49.386;8.688;2023-07-31T12:36:22;5.97;;;2.70;;
24216;SDS011;12356;49.386;8.688;2023-07-31T12:38:54;7.72;;;2.53;;
24216;SDS011;12356;49.386;8.688;2023-07-31T12:41:26;4.50;;;2.47;;
24216;SDS011;12356;49.386;8.688;2023-07-31T12:43:57;10.32;;;2.80;;
24216;SDS011;12356;49.386;8.688;2023-07-31T12:46:28;7.28;;;2.85;;
24216;SDS011;12356;49.386;8.688;2023-07-31T12:48:58;8.80;;;2.92;;
24216;SDS011;12356;49.386;8.688;2023-07-31T12:51:29;7.22;;;2.67;;
24216;SDS011;12356;49.386;8.688;2023-07-31T12:53:59;6.45;;;2.65;;
24216;SDS011;12356;49.386;8.688;2023-07-31T12:56:30;6.03;;;2.63;;
24216;SDS011;12356;49.386;8.688;2023-07-31T12:59:00;6.82;;;2.80;;
24216;SDS011;12356;49.386;8.688;2023-07-31T13:01:31;7.93;;;2.40;;
24216;SDS011;12356;49.386;8.688;2023-07-31T13:04:02;5.18;;;2.53;;
24216;SDS011;12356;49.386;8.688;2023-07-31T13:06:32;5.07;;;2.67;;
24216;SDS011;12356;49.386;8.688;2023-07-31T13:09:03;5.57;;;2.70;;
24216;SDS011;12356;49.386;8.688;2023-07-31T13:11:34;7.22;;;2.72;;
24216;SDS011;12356;49.386;8.688;2023-07-31T13:14:04;5.78;;;2.80;;
24216;SDS011;12356;49.386;8.688;2023-07-31T13:16:35;4.68;;;2.65;;
24216;SDS011;12356;49.386;8.688;2023-07-31T13:19:06;5.90;;;2.88;;
24216;SDS011;12356;49.386;8.688;2023-07-31T13:21:36;9.60;;;3.10;;
24216;SDS011;12356;49.386;8.688;2023-07-31T13:24:07;5.28;;;2.67;;
24216;SDS011;12356;49.386;8.688;2023-07-31T13:26:37;7.55;;;2.42;;
24216;SDS011;12356;49.386;8.688;2023-07-31T13:29:08;7.25;;;2.55;;
24216;SDS011;12356;49.386;8.688;2023-07-31T13:31:38;5.68;;;2.60;;
24216;SDS011;12356;49.386;8.688;2023-07-31T13:34:09;8.13;;;2.90;;
24216;SDS011;12356;49.386;8.688;2023-07-31T13:36:39;5.47;;;3.00;;
24216;SDS011;12356;49.386;8.688;2023-07-31T13:39:10;6.47;;;2.80;;
24216;SDS011;12356;49.386;8.688;2023-07-31T13:41:40;5.60;;;2.75;;
24216;SDS011;12356;49.386;8.688;2023-07-31T13:44:11;8.25;;;2.85;;
24216;SDS011;12356;49.386;8.688;2023-07-31T13:46:42;5.53;;;2.85;;
24216;SDS011;12356;49.386;8.688;2023-07-31T13:49:12;8.80;;;3.08;;
24216;SDS011;12356;49.386;8.688;2023-07-31T13:51:43;5.40;;;2.72;;
24216;SDS011;12356;49.386;8.688;2023-07-31T13:54:13;7.45;;;2.88;;
24216;SDS011;12356;49.386;8.688;2023-07-31T13:56:45;8.88;;;3.03;;
24216;SDS011;12356;49.386;8.688;2023-07-31T13:59:16;9.55;;;2.90;;
24216;SDS011;12356;49.386;8.688;2023-07-31T14:01:46;5.32;;;2.75;;
24216;SDS011;12356;49.386;8.688;2023-07-31T14:04:17;5.50;;;2.70;;
24216;SDS011;12356;49.386;8.688;2023-07-31T14:06:48;5.18;;;2.72;;
24216;SDS011;12356;49.386;8.688;2023-07-31T14:09:20;5.72;;;2.70;;
24216;SDS011;12356;49.386;8.688;2023-07-31T14:11:51;7.80;;;3.28;;
24216;SDS011;12356;49.386;8.688;2023-07-31T14:14:21;8.00;;;2.85;;
24216;SDS011;12356;49.386;8.688;2023-07-31T14:16:53;6.80;;;2.80;;
24216;SDS011;12356;49.386;8.688;2023-07-31T14:19:23;6.78;;;2.95;;
24216;SDS011;12356;49.386;8.688;2023-07-31T14:21:55;8.23;;;2.60;;
24216;SDS011;12356;49.386;8.688;2023-07-31T14:24:25;5.90;;;3.00;;
24216;SDS011;12356;49.386;8.688;2023-07-31T14:26:56;7.93;;;3.10;;
24216;SDS011;12356;49.386;8.688;2023-07-31T14:29:26;6.43;;;3.03;;
24216;SDS011;12356;49.386;8.688;2023-07-31T14:31:57;7.13;;;2.70;;
24216;SDS011;12356;49.386;8.688;2023-07-31T14:34:28;8.25;;;3.03;;
24216;SDS011;12356;49.386;8.688;2023-07-31T14:36:58;5.55;;;2.60;;
24216;SDS011;12356;49.386;8.688;2023-07-31T14:39:29;5.85;;;2.45;;
24216;SDS011;12356;49.386;8.688;2023-07-31T14:41:59;5.68;;;2.40;;
24216;SDS011;12356;49.386;8.688;2023-07-31T14:44:30;5.35;;;2.50;;
24216;SDS011;12356;49.386;8.688;2023-07-31T14:47:00;6.47;;;2.92;;
24216;SDS011;12356;49.386;8.688;2023-07-31T14:49:31;6.53;;;2.65;;
24216;SDS011;12356;49.386;8.688;2023-07-31T14:52:01;7.00;;;2.63;;
24216;SDS011;12356;49.386;8.688;2023-07-31T14:54:32;4.95;;;2.65;;
24216;SDS011;12356;49.386;8.688;2023-07-31T14:57:02;5.65;;;2.83;;
24216;SDS011;12356;49.386;8.688;2023-07-31T14:59:33;7.68;;;2.75;;
24216;SDS011;12356;49.386;8.688;2023-07-31T15:02:04;8.13;;;2.80;;
24216;SDS011;12356;49.386;8.688;2023-07-31T15:04:35;6.18;;;2.72;;
24216;SDS011;12356;49.386;8.688;2023-07-31T15:07:06;6.68;;;2.80;;
24216;SDS011;12356;49.386;8.688;2023-07-31T15:09:36;6.32;;;2.90;;
24216;SDS011;12356;49.386;8.688;2023-07-31T15:12:07;6.28;;;2.90;;
24216;SDS011;12356;49.386;8.688;2023-07-31T15:14:38;3.95;;;2.38;;
24216;SDS011;12356;49.386;8.688;2023-07-31T15:17:08;4.97;;;2.45;;
24216;SDS011;12356;49.386;8.688;2023-07-31T15:19:39;5.28;;;2.50;;
24216;SDS011;12356;49.386;8.688;2023-07-31T15:22:09;5.65;;;2.67;;
24216;SDS011;12356;49.386;8.688;2023-07-31T15:24:40;6.70;;;2.80;;
24216;SDS011;12356;49.386;8.688;2023-07-31T15:27:10;4.80;;;2.60;;